createdAt,value
2019-05-30T00:00:35.505Z,96278
2019-05-30T00:01:45.083Z,96276
2019-05-30T00:02:54.604Z,96274
2019-05-30T00:04:04.867Z,96277
2019-05-30T00:05:13.629Z,96276
2019-05-30T00:06:23.188Z,96276
2019-05-30T00:07:32.699Z,96275
2019-05-30T00:08:42.217Z,96273
2019-05-30T00:09:51.770Z,96272
2019-05-30T00:11:02.641Z,96268
2019-05-30T00:12:10.813Z,96272
2019-05-30T00:13:20.345Z,96276
2019-05-30T00:14:29.876Z,96278
2019-05-30T00:15:39.453Z,96278
2019-05-30T00:16:48.923Z,96282
2019-05-30T00:17:58.716Z,96280
2019-05-30T00:19:08.040Z,96282
2019-05-30T00:20:17.555Z,96279
2019-05-30T00:21:27.081Z,96283
2019-05-30T00:22:36.630Z,96285
2019-05-30T00:23:46.157Z,96281
2019-05-30T00:24:55.977Z,96290
2019-05-30T00:26:05.189Z,96286
2019-05-30T00:27:14.726Z,96284
2019-05-30T00:28:24.226Z,96285
2019-05-30T00:29:33.738Z,96287
2019-05-30T00:30:43.256Z,96287
2019-05-30T00:31:52.794Z,96285
2019-05-30T00:33:03.516Z,96288
2019-05-30T00:34:11.814Z,96290
2019-05-30T00:35:21.330Z,96284
2019-05-30T00:36:30.860Z,96288
2019-05-30T00:37:40.406Z,96289
2019-05-30T00:38:49.932Z,96287
2019-05-30T00:39:59.855Z,96286
2019-05-30T00:41:08.964Z,96283
2019-05-30T00:42:18.503Z,96286
2019-05-30T00:43:28.012Z,96280
2019-05-30T00:44:37.524Z,96285
2019-05-30T00:45:47.035Z,96278
2019-05-30T00:46:56.554Z,96282
2019-05-30T00:48:06.465Z,96281
2019-05-30T00:49:15.572Z,96278
2019-05-30T00:50:25.087Z,96281
2019-05-30T00:51:34.598Z,96278
2019-05-30T00:52:44.158Z,96277
2019-05-30T00:53:53.666Z,96278
2019-05-30T00:55:03.190Z,96279
2019-05-30T00:56:12.692Z,96276
2019-05-30T00:57:21.222Z,96275
2019-05-30T00:58:30.750Z,96277
2019-05-30T00:59:40.265Z,96278
2019-05-30T01:00:49.778Z,96279
2019-05-30T01:01:59.283Z,96279
2019-05-30T01:03:09.111Z,96279
2019-05-30T01:04:18.344Z,96280
2019-05-30T01:05:27.844Z,96280
2019-05-30T01:06:37.372Z,96281
2019-05-30T01:07:46.937Z,96279
2019-05-30T01:08:56.953Z,96277
2019-05-30T01:10:07.311Z,96278
2019-05-30T01:11:15.480Z,96277
2019-05-30T01:12:25.016Z,96278
2019-05-30T01:13:34.539Z,96281
2019-05-30T01:14:44.071Z,96279
2019-05-30T01:15:53.605Z,96278
2019-05-30T01:17:05.254Z,96279
2019-05-30T01:18:13.641Z,96280
2019-05-30T01:19:23.156Z,96279
2019-05-30T01:20:32.675Z,96281
2019-05-30T01:21:42.212Z,96276
2019-05-30T01:22:51.736Z,96277
2019-05-30T01:24:03.476Z,96277
2019-05-30T01:25:11.733Z,96280
2019-05-30T01:26:21.252Z,96281
2019-05-30T01:27:30.771Z,96281
2019-05-30T01:28:40.322Z,96282
2019-05-30T01:29:49.836Z,96277
2019-05-30T01:31:05.431Z,96281
2019-05-30T01:32:10.814Z,96278
2019-05-30T01:33:20.364Z,96276
2019-05-30T01:34:29.865Z,96275
2019-05-30T01:35:39.371Z,96277
2019-05-30T01:36:48.910Z,96279
2019-05-30T01:37:59.560Z,96274
2019-05-30T01:39:08.922Z,96278
2019-05-30T01:40:18.440Z,96278
2019-05-30T01:41:27.984Z,96276
2019-05-30T01:42:37.543Z,96280
2019-05-30T01:43:47.065Z,96282
2019-05-30T01:44:57.954Z,96281
2019-05-30T01:46:08.245Z,96281
2019-05-30T01:47:16.562Z,96277
2019-05-30T01:48:26.075Z,96281
2019-05-30T01:49:35.598Z,96279
2019-05-30T01:50:45.112Z,96278
2019-05-30T01:51:54.630Z,96274
2019-05-30T01:53:04.612Z,96274
2019-05-30T01:54:13.673Z,96270
2019-05-30T01:55:23.198Z,96269
2019-05-30T01:56:32.720Z,96268
2019-05-30T01:57:42.244Z,96265
2019-05-30T01:58:51.780Z,96265
2019-05-30T02:00:01.322Z,96270
2019-05-30T02:01:22.083Z,96271
2019-05-30T02:02:22.317Z,96270
2019-05-30T02:03:31.842Z,96273
2019-05-30T02:04:41.373Z,96273
2019-05-30T02:05:50.871Z,96277
2019-05-30T02:07:01.002Z,96274
2019-05-30T02:08:10.269Z,96278
2019-05-30T02:09:19.413Z,96274
2019-05-30T02:10:28.931Z,96274
2019-05-30T02:11:38.449Z,96272
2019-05-30T02:12:48.045Z,96277
2019-05-30T02:13:57.577Z,96272
2019-05-30T02:15:07.738Z,96274
2019-05-30T02:16:16.608Z,96275
2019-05-30T02:17:26.127Z,96277
2019-05-30T02:18:35.662Z,96278
2019-05-30T02:19:45.169Z,96280
2019-05-30T02:20:54.698Z,96275
2019-05-30T02:22:05.821Z,96278
2019-05-30T02:23:14.797Z,96277
2019-05-30T02:24:24.324Z,96279
2019-05-30T02:25:33.836Z,96280
2019-05-30T02:26:43.363Z,96280
2019-05-30T02:27:53.868Z,96281
2019-05-30T02:29:04.175Z,96283
2019-05-30T02:30:14.978Z,96283
2019-05-30T02:31:38.140Z,96284
2019-05-30T02:32:32.869Z,96283
2019-05-30T02:33:42.401Z,96282
2019-05-30T02:34:51.914Z,96283
2019-05-30T02:36:03.529Z,96282
2019-05-30T02:37:12.815Z,96283
2019-05-30T02:38:21.392Z,96282
2019-05-30T02:39:30.928Z,96282
2019-05-30T02:40:40.453Z,96285
2019-05-30T02:41:49.985Z,96284
2019-05-30T02:43:01.009Z,96283
2019-05-30T02:44:12.114Z,96282
2019-05-30T02:45:19.493Z,96286
2019-05-30T02:46:29.047Z,96289
2019-05-30T02:47:38.582Z,96287
2019-05-30T02:48:58.582Z,96288
2019-05-30T02:49:58.563Z,96285
2019-05-30T02:51:10.641Z,96287
2019-05-30T02:52:18.569Z,96288
2019-05-30T02:53:28.096Z,96290
2019-05-30T02:54:37.620Z,96286
2019-05-30T02:55:48.140Z,96288
2019-05-30T02:56:57.656Z,96290
2019-05-30T02:58:09.751Z,96290
2019-05-30T02:59:17.675Z,96286
2019-05-30T03:00:27.201Z,96291
2019-05-30T03:01:36.730Z,96290
2019-05-30T03:02:47.229Z,96287
2019-05-30T03:03:56.789Z,96293
2019-05-30T03:05:09.220Z,96300
2019-05-30T03:06:17.786Z,96294
2019-05-30T03:07:27.294Z,96295
2019-05-30T03:08:36.820Z,96298
2019-05-30T03:09:46.350Z,96298
2019-05-30T03:10:55.865Z,96297
2019-05-30T03:12:07.005Z,96293
2019-05-30T03:13:16.826Z,96295
2019-05-30T03:14:26.367Z,96295
2019-05-30T03:15:35.895Z,96297
2019-05-30T03:16:45.432Z,96298
2019-05-30T03:17:54.966Z,96297
2019-05-30T03:19:06.267Z,96299
2019-05-30T03:20:22.459Z,96301
2019-05-30T03:21:26.443Z,96300
2019-05-30T03:22:35.960Z,96303
2019-05-30T03:23:46.474Z,96300
2019-05-30T03:24:56.009Z,96299
2019-05-30T03:26:07.607Z,96302
2019-05-30T03:27:16.970Z,96300
2019-05-30T03:28:26.487Z,96300
2019-05-30T03:29:37.316Z,96300
2019-05-30T03:30:47.357Z,96305
2019-05-30T03:31:56.907Z,96306
2019-05-30T03:33:23.902Z,96306
2019-05-30T03:34:26.735Z,96309
2019-05-30T03:35:31.479Z,96309
2019-05-30T03:36:38.853Z,96311
2019-05-30T03:37:48.355Z,96309
2019-05-30T03:38:57.877Z,96309
2019-05-30T03:40:08.376Z,96307
2019-05-30T03:41:17.900Z,96309
2019-05-30T03:42:27.421Z,96312
2019-05-30T03:43:36.942Z,96312
2019-05-30T03:44:46.501Z,96310
2019-05-30T03:45:56.018Z,96320
2019-05-30T03:47:08.347Z,96316
2019-05-30T03:48:17.024Z,96316
2019-05-30T03:49:27.505Z,96318
2019-05-30T03:50:37.030Z,96322
2019-05-30T03:51:46.556Z,96321
2019-05-30T03:52:56.082Z,96322
2019-05-30T03:54:07.583Z,96322
2019-05-30T03:55:16.697Z,96322
2019-05-30T03:56:25.560Z,96320
2019-05-30T03:57:35.072Z,96323
2019-05-30T03:58:44.617Z,96325
2019-05-30T03:59:54.184Z,96328
2019-05-30T04:01:03.695Z,96324
2019-05-30T04:02:13.867Z,96324
2019-05-30T04:03:22.722Z,96324
2019-05-30T04:04:32.253Z,96327
2019-05-30T04:05:41.789Z,96327
2019-05-30T04:06:51.293Z,96329
2019-05-30T04:08:00.800Z,96328
2019-05-30T04:09:12.246Z,96330
2019-05-30T04:10:21.777Z,96334
2019-05-30T04:11:31.292Z,96336
2019-05-30T04:12:40.799Z,96338
2019-05-30T04:13:50.320Z,96339
2019-05-30T04:14:59.823Z,96341
2019-05-30T04:16:10.994Z,96345
2019-05-30T04:17:20.085Z,96342
2019-05-30T04:18:29.323Z,96352
2019-05-30T04:19:38.838Z,96354
2019-05-30T04:20:48.360Z,96347
2019-05-30T04:21:57.884Z,96353
2019-05-30T04:23:08.457Z,96353
2019-05-30T04:24:19.580Z,96357
2019-05-30T04:25:27.387Z,96355
2019-05-30T04:26:36.963Z,96354
2019-05-30T04:27:46.481Z,96357
2019-05-30T04:28:56.006Z,96357
2019-05-30T04:30:05.520Z,96359
2019-05-30T04:31:17.055Z,96362
2019-05-30T04:32:24.548Z,96361
2019-05-30T04:33:34.109Z,96364
2019-05-30T04:34:43.577Z,96362
2019-05-30T04:35:53.923Z,96365
2019-05-30T04:37:03.458Z,96363
2019-05-30T04:38:14.624Z,96367
2019-05-30T04:39:23.487Z,96368
2019-05-30T04:40:33.996Z,96372
2019-05-30T04:41:43.567Z,96366
2019-05-30T04:42:53.106Z,96366
2019-05-30T04:44:02.616Z,96366
2019-05-30T04:45:13.628Z,96369
2019-05-30T04:46:23.659Z,96371
2019-05-30T04:47:33.186Z,96369
2019-05-30T04:48:42.721Z,96370
2019-05-30T04:49:52.243Z,96373
2019-05-30T04:51:01.771Z,96375
2019-05-30T04:52:15.704Z,96376
2019-05-30T04:53:21.773Z,96375
2019-05-30T04:54:31.281Z,96374
2019-05-30T04:55:40.786Z,96375
2019-05-30T04:56:50.325Z,96376
2019-05-30T04:57:59.829Z,96386
2019-05-30T04:59:10.727Z,96375
2019-05-30T05:00:21.292Z,96376
2019-05-30T05:01:29.380Z,96379
2019-05-30T05:02:38.900Z,96380
2019-05-30T05:03:48.422Z,96383
2019-05-30T05:04:57.944Z,96384
2019-05-30T05:06:07.481Z,96384
2019-05-30T05:07:17.803Z,96389
2019-05-30T05:08:26.522Z,96382
2019-05-30T05:09:36.040Z,96384
2019-05-30T05:10:45.552Z,96384
2019-05-30T05:11:55.095Z,96383
2019-05-30T05:13:04.619Z,96384
2019-05-30T05:14:16.350Z,96385
2019-05-30T05:15:25.631Z,96382
2019-05-30T05:16:36.391Z,96386
2019-05-30T05:17:44.682Z,96385
2019-05-30T05:18:54.201Z,96385
2019-05-30T05:20:03.718Z,96391
2019-05-30T05:21:13.251Z,96385
2019-05-30T05:22:23.317Z,96393
2019-05-30T05:23:32.287Z,96388
2019-05-30T05:24:41.820Z,96386
2019-05-30T05:26:00.138Z,96392
2019-05-30T05:27:01.825Z,96393
2019-05-30T05:28:13.563Z,96391
2019-05-30T05:29:24.073Z,96395
2019-05-30T05:30:32.330Z,96395
2019-05-30T05:31:41.867Z,96396
2019-05-30T05:32:51.496Z,96395
2019-05-30T05:34:00.903Z,96392
2019-05-30T05:35:10.419Z,96392
2019-05-30T05:36:20.932Z,96394
2019-05-30T05:37:29.515Z,96392
2019-05-30T05:38:39.047Z,96392
2019-05-30T05:39:48.556Z,96396
2019-05-30T05:40:58.079Z,96399
2019-05-30T05:42:07.614Z,96399
2019-05-30T05:43:18.512Z,96401
2019-05-30T05:44:28.691Z,96403
2019-05-30T05:45:37.135Z,96400
2019-05-30T05:46:46.670Z,96401
2019-05-30T05:47:56.225Z,96402
2019-05-30T05:49:05.747Z,96405
2019-05-30T05:50:16.555Z,96402
2019-05-30T05:51:25.746Z,96402
2019-05-30T05:52:35.259Z,96405
2019-05-30T05:53:44.788Z,96408
2019-05-30T05:54:54.300Z,96408
2019-05-30T05:56:03.826Z,96405
2019-05-30T05:57:13.375Z,96409
2019-05-30T05:58:26.090Z,96408
2019-05-30T05:59:33.376Z,96409
2019-05-30T06:00:42.888Z,96406
2019-05-30T06:01:52.425Z,96409
2019-05-30T06:03:01.931Z,96408
2019-05-30T06:04:13.370Z,96412
2019-05-30T06:05:22.257Z,96410
2019-05-30T06:06:31.763Z,96407
2019-05-30T06:07:41.089Z,96408
2019-05-30T06:08:50.598Z,96413
2019-05-30T06:10:00.118Z,96413
2019-05-30T06:11:09.652Z,96412
2019-05-30T06:12:19.634Z,96415
2019-05-30T06:13:29.043Z,96415
2019-05-30T06:14:38.226Z,96415
2019-05-30T06:15:47.750Z,96410
2019-05-30T06:16:57.284Z,96414
2019-05-30T06:18:06.799Z,96413
2019-05-30T06:19:17.128Z,96419
2019-05-30T06:20:25.843Z,96416
2019-05-30T06:21:35.370Z,96420
2019-05-30T06:22:45.855Z,96419
2019-05-30T06:23:55.366Z,96418
2019-05-30T06:25:04.911Z,96423
2019-05-30T06:26:14.430Z,96424
2019-05-30T06:27:26.032Z,96428
2019-05-30T06:28:34.408Z,96419
2019-05-30T06:29:43.915Z,96423
2019-05-30T06:30:53.432Z,96428
2019-05-30T06:32:02.966Z,96434
2019-05-30T06:33:12.493Z,96429
2019-05-30T06:34:32.175Z,96426
2019-05-30T06:35:32.514Z,96429
2019-05-30T06:36:42.046Z,96427
2019-05-30T06:37:51.603Z,96433
2019-05-30T06:39:01.116Z,96433
2019-05-30T06:40:10.661Z,96431
2019-05-30T06:41:20.186Z,96432
2019-05-30T06:42:30.335Z,96435
2019-05-30T06:43:39.256Z,96432
2019-05-30T06:44:48.769Z,96431
2019-05-30T06:45:58.283Z,96428
2019-05-30T06:47:07.818Z,96432
2019-05-30T06:48:17.329Z,96430
2019-05-30T06:49:28.996Z,96431
2019-05-30T06:50:37.301Z,96433
2019-05-30T06:51:46.843Z,96435
2019-05-30T06:52:56.355Z,96437
2019-05-30T06:54:05.868Z,96440
2019-05-30T06:55:15.400Z,96439
2019-05-30T06:56:25.258Z,96437
2019-05-30T06:57:34.425Z,96431
2019-05-30T06:58:48.627Z,96438
2019-05-30T06:59:54.416Z,96439
2019-05-30T07:01:03.923Z,96441
2019-05-30T07:02:13.451Z,96443
2019-05-30T07:03:24.119Z,96440
2019-05-30T07:04:50.013Z,96440
2019-05-30T07:05:44.231Z,96443
2019-05-30T07:06:53.626Z,96441
2019-05-30T07:08:02.954Z,96448
2019-05-30T07:09:12.457Z,96445
2019-05-30T07:10:22.684Z,96437
2019-05-30T07:11:31.505Z,96443
2019-05-30T07:12:41.036Z,96448
2019-05-30T07:13:50.546Z,96449
2019-05-30T07:15:00.055Z,96449
2019-05-30T07:16:09.567Z,96443
2019-05-30T07:17:19.113Z,96445
2019-05-30T07:18:33.106Z,96441
2019-05-30T07:19:39.082Z,96446
2019-05-30T07:20:48.596Z,96447
2019-05-30T07:21:58.119Z,96451
2019-05-30T07:23:07.630Z,96446
2019-05-30T07:24:17.155Z,96448
2019-05-30T07:25:27.765Z,96448
2019-05-30T07:26:37.142Z,96451
2019-05-30T07:27:46.664Z,96454
2019-05-30T07:28:56.192Z,96454
2019-05-30T07:30:05.692Z,96453
2019-05-30T07:31:15.202Z,96458
2019-05-30T07:32:25.610Z,96455
2019-05-30T07:33:35.191Z,96458
2019-05-30T07:34:45.967Z,96456
2019-05-30T07:35:55.187Z,96458
2019-05-30T07:37:04.731Z,96454
2019-05-30T07:38:14.262Z,96462
2019-05-30T07:39:26.468Z,96458
2019-05-30T07:40:34.805Z,96470
2019-05-30T07:41:43.822Z,96464
2019-05-30T07:42:54.347Z,96460
2019-05-30T07:44:03.860Z,96465
2019-05-30T07:45:13.369Z,96466
2019-05-30T07:46:22.880Z,96463
2019-05-30T07:47:32.422Z,96469
2019-05-30T07:48:41.924Z,96468
2019-05-30T07:49:51.435Z,96465
2019-05-30T07:51:00.947Z,96470
2019-05-30T07:52:10.484Z,96470
2019-05-30T07:53:20.005Z,96471
2019-05-30T07:54:30.667Z,96469
2019-05-30T07:55:39.309Z,96471
2019-05-30T07:56:48.527Z,96467
2019-05-30T07:57:58.061Z,96468
2019-05-30T07:59:07.575Z,96467
2019-05-30T08:00:17.079Z,96469
2019-05-30T08:01:26.592Z,96472
2019-05-30T08:02:36.113Z,96471
2019-05-30T08:03:45.626Z,96476
2019-05-30T08:04:55.136Z,96477
2019-05-30T08:06:04.650Z,96477
2019-05-30T08:07:14.160Z,96478
2019-05-30T08:08:23.688Z,96477
2019-05-30T08:09:33.208Z,96475
2019-05-30T08:10:42.742Z,96472
2019-05-30T08:11:52.237Z,96472
2019-05-30T08:13:01.780Z,96471
2019-05-30T08:14:11.299Z,96471
2019-05-30T08:15:20.805Z,96471
2019-05-30T08:16:31.204Z,96472
2019-05-30T08:17:44.003Z,96471
2019-05-30T08:18:50.314Z,96469
2019-05-30T08:19:59.826Z,96473
2019-05-30T08:21:09.353Z,96471
2019-05-30T08:22:18.867Z,96465
2019-05-30T08:23:28.422Z,96469
2019-05-30T08:24:38.830Z,96468
2019-05-30T08:25:47.478Z,96468
2019-05-30T08:26:56.987Z,96468
2019-05-30T08:28:06.515Z,96467
2019-05-30T08:29:16.026Z,96465
2019-05-30T08:30:25.541Z,96467
2019-05-30T08:31:35.056Z,96467
2019-05-30T08:32:44.567Z,96472
2019-05-30T08:33:54.105Z,96472
2019-05-30T08:35:03.621Z,96475
2019-05-30T08:36:13.159Z,96473
2019-05-30T08:37:23.663Z,96470
2019-05-30T08:38:35.288Z,96471
2019-05-30T08:39:43.641Z,96473
2019-05-30T08:40:53.155Z,96472
2019-05-30T08:42:02.663Z,96475
2019-05-30T08:43:12.191Z,96474
2019-05-30T08:44:21.709Z,96471
2019-05-30T08:45:31.593Z,96473
2019-05-30T08:46:40.704Z,96472
2019-05-30T08:47:50.229Z,96471
2019-05-30T08:49:01.763Z,96467
2019-05-30T08:50:09.254Z,96472
2019-05-30T08:51:18.752Z,96470
2019-05-30T08:52:28.256Z,96469
2019-05-30T08:53:38.412Z,96473
2019-05-30T08:54:47.307Z,96476
2019-05-30T08:55:56.818Z,96475
2019-05-30T08:57:06.319Z,96479
2019-05-30T08:58:15.841Z,96476
2019-05-30T08:59:25.349Z,96477
2019-05-30T09:00:34.850Z,96479
2019-05-30T09:01:44.390Z,96477
2019-05-30T09:02:54.899Z,96480
2019-05-30T09:04:04.427Z,96474
2019-05-30T09:05:13.947Z,96482
2019-05-30T09:06:23.504Z,96476
2019-05-30T09:07:32.964Z,96475
2019-05-30T09:08:44.225Z,96474
2019-05-30T09:09:53.002Z,96474
2019-05-30T09:11:02.511Z,96475
2019-05-30T09:12:12.033Z,96470
2019-05-30T09:13:21.574Z,96470
2019-05-30T09:14:31.072Z,96475
2019-05-30T09:15:42.878Z,96468
2019-05-30T09:16:51.204Z,96474
2019-05-30T09:18:00.588Z,96473
2019-05-30T09:19:10.108Z,96471
2019-05-30T09:20:19.614Z,96475
2019-05-30T09:21:29.134Z,96470
2019-05-30T09:22:39.752Z,96472
2019-05-30T09:23:48.233Z,96473
2019-05-30T09:24:58.636Z,96472
2019-05-30T09:26:08.152Z,96473
2019-05-30T09:27:17.655Z,96472
2019-05-30T09:28:27.172Z,96474
2019-05-30T09:29:37.828Z,96471
2019-05-30T09:30:48.400Z,96470
2019-05-30T09:31:56.673Z,96467
2019-05-30T09:33:06.197Z,96467
2019-05-30T09:34:15.734Z,96468
2019-05-30T09:35:25.249Z,96463
2019-05-30T09:36:34.775Z,96468
2019-05-30T09:37:45.752Z,96462
2019-05-30T09:38:54.655Z,96468
2019-05-30T09:40:04.033Z,96465
2019-05-30T09:41:13.544Z,96465
2019-05-30T09:42:23.052Z,96465
2019-05-30T09:43:32.570Z,96470
2019-05-30T09:44:44.772Z,96462
2019-05-30T09:45:53.560Z,96464
2019-05-30T09:47:03.072Z,96462
2019-05-30T09:48:12.575Z,96465
2019-05-30T09:49:22.099Z,96463
2019-05-30T09:50:31.598Z,96469
2019-05-30T09:51:42.347Z,96466
2019-05-30T09:52:51.326Z,96467
2019-05-30T09:54:00.142Z,96469
2019-05-30T09:55:09.654Z,96465
2019-05-30T09:56:19.157Z,96469
2019-05-30T09:57:28.665Z,96464
2019-05-30T09:58:38.180Z,96465
2019-05-30T09:59:50.387Z,96471
2019-05-30T10:00:58.183Z,96469
2019-05-30T10:02:07.696Z,96470
2019-05-30T10:03:17.225Z,96467
2019-05-30T10:04:26.749Z,96465
2019-05-30T10:05:36.260Z,96462
2019-05-30T10:06:46.780Z,96461
2019-05-30T10:07:56.287Z,96466
2019-05-30T10:09:05.831Z,96474
2019-05-30T10:10:15.336Z,96466
2019-05-30T10:11:24.907Z,96469
2019-05-30T10:12:34.382Z,96469
2019-05-30T10:13:43.959Z,96465
2019-05-30T10:14:54.378Z,96469
2019-05-30T10:16:03.895Z,96471
2019-05-30T10:17:13.409Z,96466
2019-05-30T10:18:22.939Z,96466
2019-05-30T10:19:32.447Z,96473
2019-05-30T10:20:41.962Z,96471
2019-05-30T10:21:53.227Z,96464
2019-05-30T10:23:03.643Z,96467
2019-05-30T10:24:11.505Z,96467
2019-05-30T10:25:21.005Z,96463
2019-05-30T10:26:30.536Z,96467
2019-05-30T10:27:40.048Z,96464
2019-05-30T10:28:51.392Z,96476
2019-05-30T10:30:00.059Z,96474
2019-05-30T10:31:09.577Z,96465
2019-05-30T10:32:19.100Z,96470
2019-05-30T10:33:28.670Z,96470
2019-05-30T10:34:38.164Z,96469
2019-05-30T10:35:49.120Z,96468
2019-05-30T10:36:58.209Z,96467
2019-05-30T10:38:07.743Z,96466
2019-05-30T10:39:17.251Z,96464
2019-05-30T10:40:26.792Z,96467
2019-05-30T10:41:36.281Z,96462
2019-05-30T10:42:46.163Z,96461
2019-05-30T10:43:57.244Z,96463
2019-05-30T10:45:05.783Z,96456
2019-05-30T10:46:15.285Z,96463
2019-05-30T10:47:24.942Z,96463
2019-05-30T10:48:34.469Z,96464
2019-05-30T10:49:45.283Z,96463
2019-05-30T10:50:54.566Z,96465
2019-05-30T10:52:04.006Z,96464
2019-05-30T10:53:13.520Z,96462
2019-05-30T10:54:23.030Z,96461
2019-05-30T10:55:32.571Z,96461
2019-05-30T10:56:42.091Z,96461
2019-05-30T10:57:56.262Z,96464
2019-05-30T10:59:03.049Z,96457
2019-05-30T11:00:12.670Z,96456
2019-05-30T11:01:22.169Z,96456
2019-05-30T11:02:31.691Z,96455
2019-05-30T11:03:41.201Z,96456
2019-05-30T11:04:52.999Z,96457
2019-05-30T11:06:01.255Z,96453
2019-05-30T11:07:11.925Z,96454
2019-05-30T11:08:20.295Z,96449
2019-05-30T11:09:29.829Z,96455
2019-05-30T11:10:39.392Z,96453
2019-05-30T11:11:48.930Z,96450
2019-05-30T11:13:05.548Z,96447
2019-05-30T11:14:08.910Z,96445
2019-05-30T11:15:18.429Z,96447
2019-05-30T11:16:27.937Z,96441
2019-05-30T11:17:37.525Z,96438
2019-05-30T11:18:47.477Z,96444
2019-05-30T11:19:57.948Z,96442
2019-05-30T11:21:07.065Z,96435
2019-05-30T11:22:16.612Z,96432
2019-05-30T11:23:26.141Z,96430
2019-05-30T11:24:35.662Z,96435
2019-05-30T11:25:45.204Z,96432
2019-05-30T11:26:57.111Z,96429
2019-05-30T11:28:05.225Z,96428
2019-05-30T11:29:14.748Z,96427
2019-05-30T11:30:24.325Z,96426
2019-05-30T11:31:33.830Z,96429
2019-05-30T11:32:43.338Z,96427
2019-05-30T11:33:55.001Z,96424
2019-05-30T11:35:03.310Z,96428
2019-05-30T11:36:12.820Z,96430
2019-05-30T11:37:22.343Z,96428
2019-05-30T11:38:31.871Z,96430
2019-05-30T11:39:41.390Z,96435
2019-05-30T11:40:51.324Z,96429
2019-05-30T11:42:00.431Z,96428
2019-05-30T11:43:09.943Z,96424
2019-05-30T11:44:19.454Z,96423
2019-05-30T11:45:28.962Z,96415
2019-05-30T11:46:38.482Z,96420
2019-05-30T11:47:47.993Z,96415
2019-05-30T11:48:57.851Z,96416
2019-05-30T11:50:07.016Z,96413
2019-05-30T11:51:16.526Z,96418
2019-05-30T11:52:26.047Z,96414
2019-05-30T11:53:35.558Z,96413
2019-05-30T11:54:45.080Z,96411
2019-05-30T11:55:54.594Z,96413
2019-05-30T11:57:04.128Z,96417
2019-05-30T11:58:13.666Z,96419
2019-05-30T11:59:23.171Z,96408
2019-05-30T12:00:32.717Z,96412
2019-05-30T12:01:42.250Z,96405
2019-05-30T12:02:52.166Z,96408
2019-05-30T12:04:01.279Z,96409
2019-05-30T12:05:10.788Z,96411
2019-05-30T12:06:20.313Z,96406
2019-05-30T12:07:36.055Z,96406
2019-05-30T12:08:40.311Z,96412
2019-05-30T12:09:50.752Z,96405
2019-05-30T12:10:59.433Z,96409
2019-05-30T12:12:08.873Z,96408
2019-05-30T12:13:18.402Z,96404
2019-05-30T12:14:27.926Z,96410
2019-05-30T12:15:37.492Z,96405
2019-05-30T12:16:47.027Z,96405
2019-05-30T12:17:57.435Z,96405
2019-05-30T12:19:06.045Z,96408
2019-05-30T12:20:15.585Z,96408
2019-05-30T12:21:25.114Z,96401
2019-05-30T12:22:34.677Z,96401
2019-05-30T12:23:45.194Z,96400
2019-05-30T12:24:55.798Z,96412
2019-05-30T12:26:05.251Z,96407
2019-05-30T12:27:14.801Z,96404
2019-05-30T12:28:24.370Z,96403
2019-05-30T12:29:33.927Z,96397
2019-05-30T12:30:55.652Z,96387
2019-05-30T12:31:56.116Z,96394
2019-05-30T12:33:04.392Z,96394
2019-05-30T12:34:14.021Z,96397
2019-05-30T12:35:23.533Z,96397
2019-05-30T12:36:33.052Z,96394
2019-05-30T12:37:53.883Z,96401
2019-05-30T12:38:54.192Z,96393
2019-05-30T12:40:03.528Z,96395
2019-05-30T12:41:13.048Z,96396
2019-05-30T12:42:22.623Z,96403
2019-05-30T12:43:32.134Z,96395
2019-05-30T12:44:41.719Z,96393
2019-05-30T12:45:51.221Z,96400
2019-05-30T12:47:01.302Z,96396
2019-05-30T12:48:10.383Z,96398
2019-05-30T12:49:19.979Z,96398
2019-05-30T12:50:29.505Z,96389
2019-05-30T12:51:39.033Z,96394
2019-05-30T12:52:48.547Z,96391
2019-05-30T12:53:58.450Z,96385
2019-05-30T12:55:07.596Z,96386
2019-05-30T12:56:17.119Z,96379
2019-05-30T12:57:26.641Z,96382
2019-05-30T12:58:36.290Z,96389
2019-05-30T12:59:45.772Z,96385
2019-05-30T13:00:56.571Z,96385
2019-05-30T13:02:07.166Z,96386
2019-05-30T13:03:15.387Z,96387
2019-05-30T13:04:24.915Z,96387
2019-05-30T13:05:34.459Z,96385
2019-05-30T13:06:43.961Z,96388
2019-05-30T13:08:11.653Z,96387
2019-05-30T13:09:04.981Z,96386
2019-05-30T13:10:14.494Z,96382
2019-05-30T13:11:24.065Z,96390
2019-05-30T13:12:33.594Z,96389
2019-05-30T13:13:43.158Z,96396
2019-05-30T13:14:52.704Z,96386
2019-05-30T13:16:06.656Z,96381
2019-05-30T13:17:11.896Z,96383
2019-05-30T13:18:21.481Z,96372
2019-05-30T13:19:30.995Z,96387
2019-05-30T13:20:40.555Z,96366
2019-05-30T13:21:53.578Z,96368
2019-05-30T13:23:00.514Z,96368
2019-05-30T13:24:09.338Z,96368
2019-05-30T13:25:18.876Z,96369
2019-05-30T13:26:28.478Z,96374
2019-05-30T13:27:38.063Z,96369
2019-05-30T13:28:47.567Z,96377
2019-05-30T13:29:57.971Z,96369
2019-05-30T13:31:07.051Z,96377
2019-05-30T13:32:16.319Z,96380
2019-05-30T13:33:25.966Z,96379
2019-05-30T13:34:35.516Z,96374
2019-05-30T13:35:45.118Z,96380
2019-05-30T13:36:54.645Z,96374
2019-05-30T13:38:05.256Z,96375
2019-05-30T13:39:14.785Z,96378
2019-05-30T13:40:25.515Z,96378
2019-05-30T13:41:33.894Z,96386
2019-05-30T13:42:43.435Z,96379
2019-05-30T13:43:52.948Z,96375
2019-05-30T13:45:04.122Z,96385
2019-05-30T13:46:13.106Z,96377
2019-05-30T13:47:22.666Z,96373
2019-05-30T13:48:32.241Z,96373
2019-05-30T13:49:41.754Z,96370
2019-05-30T13:50:51.297Z,96365
2019-05-30T13:52:03.277Z,96373
2019-05-30T13:53:12.312Z,96367
2019-05-30T13:54:22.148Z,96373
2019-05-30T13:55:31.515Z,96371
2019-05-30T13:56:41.020Z,96380
2019-05-30T13:57:51.544Z,96372
2019-05-30T13:59:01.773Z,96374
2019-05-30T14:00:10.794Z,96372
2019-05-30T14:01:20.124Z,96371
2019-05-30T14:02:29.632Z,96371
2019-05-30T14:03:39.137Z,96371
2019-05-30T14:04:48.669Z,96375
2019-05-30T14:05:59.872Z,96375
2019-05-30T14:07:08.663Z,96375
2019-05-30T14:08:18.171Z,96380
2019-05-30T14:09:27.676Z,96371
2019-05-30T14:10:37.184Z,96374
2019-05-30T14:11:46.708Z,96369
2019-05-30T14:12:56.221Z,96371
2019-05-30T14:14:06.831Z,96370
2019-05-30T14:15:15.208Z,96370
2019-05-30T14:16:24.726Z,96371
2019-05-30T14:17:34.261Z,96366
2019-05-30T14:18:43.775Z,96367
2019-05-30T14:19:53.299Z,96366
2019-05-30T14:21:05.103Z,96366
2019-05-30T14:22:13.351Z,96373
2019-05-30T14:23:22.864Z,96369
2019-05-30T14:24:32.395Z,96369
2019-05-30T14:25:41.900Z,96395
2019-05-30T14:26:51.425Z,96398
2019-05-30T14:28:01.459Z,96395
2019-05-30T14:29:10.457Z,96403
2019-05-30T14:30:19.973Z,96397
2019-05-30T14:31:29.469Z,96402
2019-05-30T14:32:38.982Z,96400
2019-05-30T14:33:48.494Z,96399
2019-05-30T14:34:58.007Z,96403
2019-05-30T14:36:10.813Z,96407
2019-05-30T14:37:18.004Z,96411
2019-05-30T14:38:27.516Z,96405
2019-05-30T14:39:37.040Z,96412
2019-05-30T14:40:46.537Z,96413
2019-05-30T14:41:56.087Z,96410
2019-05-30T14:43:05.587Z,96385
2019-05-30T14:44:15.142Z,96420
2019-05-30T14:45:27.654Z,96423
2019-05-30T14:46:34.174Z,96403
2019-05-30T14:47:43.720Z,96418
2019-05-30T14:48:53.259Z,96382
2019-05-30T14:50:04.533Z,96414
2019-05-30T14:51:13.882Z,96384
2019-05-30T14:52:23.444Z,96383
2019-05-30T14:53:33.948Z,96387
2019-05-30T14:54:43.457Z,96379
2019-05-30T14:55:52.970Z,96384
2019-05-30T14:57:02.512Z,96407